Time;durP1;ratioP1;P1;durP2;ratioP2;P2;SDS_P1;SDS_P2;PMS_P1;PMS_P2;Temp;Humidity;BMP_temperature;BMP_pressure;BME280_temperature;BME280_humidity;BME280_pressure;Samples;Min_cycle;Max_cycle;Signal;HPM_P1;HPM_P2
2023/05/09 00:01:52;;;;;;;54.58;38.92;;;;;;;13.69;100.00;101576.72;4993785;28;20047;-43
2023/05/09 00:04:18;;;;;;;52.33;37.85;;;;;;;14.09;100.00;101645.06;4994052;28;20041;-44
2023/05/09 00:06:44;;;;;;;53.30;37.30;;;;;;;14.13;100.00;101640.53;4993542;28;20432;-42
2023/05/09 00:09:09;;;;;;;48.97;36.38;;;;;;;14.16;100.00;101633.31;4993763;28;20049;-44
2023/05/09 00:11:34;;;;;;;45.28;34.22;;;;;;;14.24;100.00;101644.53;4993756;28;20034;-45
2023/05/09 00:14:01;;;;;;;48.08;34.53;;;;;;;14.28;100.00;101634.69;4976139;28;20533;-41
2023/05/09 00:16:27;;;;;;;43.58;33.65;;;;;;;13.94;100.00;101566.16;4993653;28;20374;-42
2023/05/09 00:18:53;;;;;;;42.72;34.70;;;;;;;14.19;100.00;101608.53;4993576;28;20069;-41
2023/05/09 00:21:18;;;;;;;40.22;33.13;;;;;;;14.21;100.00;101609.34;4976192;28;20105;-41
2023/05/09 00:23:45;;;;;;;44.30;32.35;;;;;;;14.34;100.00;101622.13;4976515;28;20041;-41
2023/05/09 00:26:10;;;;;;;38.63;30.95;;;;;;;14.30;100.00;101614.34;4993908;28;20077;-42
2023/05/09 00:28:36;;;;;;;42.17;30.83;;;;;;;14.39;100.00;101628.13;4993274;28;20037;-44
2023/05/09 00:31:02;;;;;;;37.65;29.80;;;;;;;14.04;100.00;101559.63;4993461;28;20046;-42
2023/05/09 00:33:27;;;;;;;38.60;29.90;;;;;;;14.33;100.00;101628.34;4976091;28;20040;-42
2023/05/09 00:35:53;;;;;;;41.63;29.70;;;;;;;14.21;100.00;101588.16;4993523;28;20034;-45
2023/05/09 00:38:22;;;;;;;36.00;29.05;;;;;;;14.30;100.00;101611.69;4976193;28;20039;-42
2023/05/09 00:40:48;;;;;;;34.90;28.58;;;;;;;14.22;100.00;101600.47;4991940;28;20030;-43
2023/05/09 00:43:13;;;;;;;38.55;29.77;;;;;;;13.87;100.00;101533.75;4993444;28;20501;-42
2023/05/09 00:45:39;;;;;;;31.73;26.67;;;;;;;14.26;100.00;101597.69;4993362;28;20038;-41
2023/05/09 00:48:04;;;;;;;36.95;29.02;;;;;;;14.23;100.00;101600.44;4993198;28;20038;-43
2023/05/09 00:50:30;;;;;;;35.70;29.20;;;;;;;14.15;100.00;101580.44;4993371;28;20482;-41
2023/05/09 00:52:56;;;;;;;35.50;28.73;;;;;;;14.23;100.00;101587.19;4975775;28;20034;-42
2023/05/09 00:55:22;;;;;;;36.53;27.65;;;;;;;13.63;100.00;101518.72;4992623;28;20130;-41
2023/05/09 00:57:47;;;;;;;34.50;28.13;;;;;;;14.24;100.00;101585.41;4992954;28;20039;-42
2023/05/09 01:00:13;;;;;;;34.30;26.80;;;;;;;13.80;100.00;101508.44;4975241;28;20030;-42
2023/05/09 01:02:44;;;;;;;32.22;26.17;;;;;;;14.27;100.00;101574.72;4992882;28;20046;-43
2023/05/09 01:05:10;;;;;;;32.38;25.20;;;;;;;14.26;100.00;101572.97;4974983;28;20038;-44
2023/05/09 01:07:54;;;;;;;30.52;26.50;;;;;;;14.30;100.00;101566.66;4992816;28;20470;-45
2023/05/09 01:10:35;;;;;;;30.95;26.17;;;;;;;14.30;100.00;101553.41;4975298;28;20398;-44
2023/05/09 01:13:31;;;;;;;35.20;25.10;;;;;;;14.30;100.00;101554.25;4992819;28;20117;-41
2023/05/09 01:16:05;;;;;;;34.33;25.50;;;;;;;13.88;100.00;101479.91;4963596;28;20045;-44
2023/05/09 01:19:13;;;;;;;30.48;24.27;;;;;;;14.31;100.00;101547.19;4975256;28;20030;-45
2023/05/09 01:21:42;;;;;;;31.85;24.02;;;;;;;14.30;100.00;101545.47;4981914;28;20046;-45
2023/05/09 01:24:26;;;;;;;34.00;24.40;;;;;;;14.28;100.00;101553.47;4975569;28;20113;-42
2023/05/09 01:27:10;;;;;;;28.63;25.52;;;;;;;14.24;100.00;101543.91;4992739;28;20076;-46
2023/05/09 01:29:36;;;;;;;33.00;23.85;;;;;;;13.89;100.00;101476.31;4992489;28;20109;-44
2023/05/09 01:32:06;;;;;;;31.75;23.63;;;;;;;14.17;100.00;101526.50;4961339;28;20565;-43
2023/05/09 01:34:33;;;;;;;31.42;24.27;;;;;;;14.00;100.00;101491.84;4979082;28;20030;-42
2023/05/09 01:37:02;;;;;;;29.33;23.95;;;;;;;13.87;100.00;101467.59;4979492;28;20121;-44
2023/05/09 01:39:28;;;;;;;32.92;23.90;;;;;;;14.14;100.00;101515.16;4979966;28;20035;-41
2023/05/09 01:41:55;;;;;;;33.28;24.02;;;;;;;14.03;100.00;101497.91;4979105;28;20089;-45
2023/05/09 01:44:22;;;;;;;28.90;22.50;;;;;;;13.84;100.00;101465.06;4979008;28;20382;-41
2023/05/09 01:46:48;;;;;;;26.23;21.73;;;;;;;13.89;100.00;101465.75;4979352;28;20058;-41
2023/05/09 01:49:14;;;;;;;27.33;20.92;;;;;;;14.21;100.00;101511.38;4962781;28;20031;-45
2023/05/09 01:51:40;;;;;;;26.75;20.70;;;;;;;14.00;100.00;101476.84;4978954;28;20556;-42
2023/05/09 01:54:05;;;;;;;24.67;20.95;;;;;;;13.94;100.00;101466.47;4996444;28;20066;-43
2023/05/09 01:56:31;;;;;;;25.20;19.88;;;;;;;14.18;100.00;101495.59;4979461;28;20038;-42
2023/05/09 01:58:57;;;;;;;29.17;20.50;;;;;;;13.86;100.00;101442.06;4978549;28;20034;-41
2023/05/09 02:01:23;;;;;;;26.38;20.67;;;;;;;14.19;100.00;101489.38;4978862;28;20066;-45
2023/05/09 02:03:51;;;;;;;28.17;20.67;;;;;;;13.80;100.00;101425.53;4978930;28;20038;-41
2023/05/09 02:06:17;;;;;;;26.33;20.13;;;;;;;13.79;100.00;101424.66;4996110;28;20077;-42
2023/05/09 02:08:43;;;;;;;26.13;20.52;;;;;;;14.16;100.00;101495.66;4978563;28;20045;-40
2023/05/09 02:11:08;;;;;;;23.85;19.75;;;;;;;13.78;100.00;101428.22;4995764;28;20034;-43
2023/05/09 02:13:34;;;;;;;24.92;20.35;;;;;;;14.17;100.00;101483.28;4978507;28;20038;-41
2023/05/09 02:15:59;;;;;;;25.95;20.95;;;;;;;14.16;100.00;101482.41;4978347;28;20046;-43
2023/05/09 02:18:25;;;;;;;25.20;20.05;;;;;;;14.15;100.00;101493.94;4978914;28;20524;-41
2023/05/09 02:20:50;;;;;;;25.63;20.23;;;;;;;13.76;100.00;101423.91;4978522;28;20033;-41
2023/05/09 02:23:15;;;;;;;26.67;20.33;;;;;;;14.06;100.00;101475.75;4995985;28;20398;-43
2023/05/09 02:25:41;;;;;;;22.40;19.17;;;;;;;13.74;100.00;101426.63;4995720;28;20045;-42
2023/05/09 02:28:07;;;;;;;26.10;19.50;;;;;;;14.06;100.00;101478.38;4995768;28;20041;-43
2023/05/09 02:30:38;;;;;;;24.25;19.38;;;;;;;13.77;100.00;101415.06;4978771;28;20097;-42
2023/05/09 02:33:05;;;;;;;24.85;19.67;;;;;;;14.08;100.00;101473.91;4995885;28;20458;-42
2023/05/09 02:35:31;;;;;;;23.38;18.98;;;;;;;14.06;100.00;101459.84;4995439;28;20310;-40
2023/05/09 02:37:58;;;;;;;24.98;18.45;;;;;;;14.05;100.00;101459.00;4978128;28;20451;-43
2023/05/09 02:40:25;;;;;;;25.55;18.45;;;;;;;13.66;100.00;101391.63;4995801;28;20393;-42
2023/05/09 02:42:50;;;;;;;22.83;18.15;;;;;;;14.07;100.00;101462.44;4976627;28;20037;-42
2023/05/09 02:45:16;;;;;;;20.75;18.00;;;;;;;13.74;100.00;101441.63;4995360;28;20034;-42
2023/05/09 02:47:41;;;;;;;24.92;18.35;;;;;;;14.02;100.00;101459.09;4995463;28;20397;-44
2023/05/09 02:50:07;;;;;;;23.83;18.05;;;;;;;13.68;100.00;101395.09;4995459;28;20390;-40
2023/05/09 02:52:32;;;;;;;22.92;17.73;;;;;;;13.64;100.00;101379.38;4977740;28;20076;-43
2023/05/09 02:54:58;;;;;;;22.33;16.38;;;;;;;13.69;100.00;101391.53;4995410;28;20038;-42
2023/05/09 02:57:23;;;;;;;24.20;17.30;;;;;;;13.99;100.00;101432.75;4995186;28;20038;-45
2023/05/09 02:59:48;;;;;;;21.17;17.23;;;;;;;14.05;100.00;101448.41;4995499;28;20046;-42
2023/05/09 03:02:14;;;;;;;23.92;16.75;;;;;;;14.10;100.00;101456.16;4995142;28;20053;-44
2023/05/09 03:04:40;;;;;;;22.20;16.85;;;;;;;14.11;100.00;101447.31;4994961;28;20033;-43
2023/05/09 03:07:05;;;;;;;22.05;16.70;;;;;;;13.78;100.00;101382.38;4995111;28;20403;-41
2023/05/09 03:09:31;;;;;;;22.38;17.42;;;;;;;13.81;100.00;101385.78;4977488;28;20041;-46
2023/05/09 03:11:56;;;;;;;20.85;16.40;;;;;;;14.12;100.00;101438.47;4994896;28;20030;-42
2023/05/09 03:14:21;;;;;;;20.05;17.38;;;;;;;14.10;100.00;101430.56;4995109;28;20030;-43
2023/05/09 03:16:47;;;;;;;20.10;17.23;;;;;;;13.93;100.00;101409.16;4995169;28;20113;-43
2023/05/09 03:19:12;;;;;;;21.95;17.50;;;;;;;13.69;100.00;101374.81;4977350;28;20059;-42
2023/05/09 03:21:38;;;;;;;20.55;16.63;;;;;;;13.70;100.00;101363.28;4994358;28;20046;-44
2023/05/09 03:24:04;;;;;;;20.73;17.15;;;;;;;13.87;100.00;101398.78;4994503;28;20081;-43
2023/05/09 03:26:29;;;;;;;25.25;17.83;;;;;;;13.73;100.00;101371.09;4994584;28;20088;-42
2023/05/09 03:28:54;;;;;;;20.73;17.02;;;;;;;14.02;100.00;101406.16;4994668;28;20038;-45
2023/05/09 03:31:20;;;;;;;25.70;17.58;;;;;;;13.95;100.00;101404.66;4994825;28;20100;-45
2023/05/09 03:33:45;;;;;;;20.98;17.63;;;;;;;13.65;100.00;101344.09;4994676;28;20042;-42
2023/05/09 03:36:11;;;;;;;23.20;17.48;;;;;;;13.63;100.00;101333.53;4994833;28;20121;-43
2023/05/09 03:38:36;;;;;;;19.77;17.65;;;;;;;13.99;100.00;101395.69;4994756;28;20038;-42
2023/05/09 03:41:02;;;;;;;21.60;17.63;;;;;;;13.35;100.00;101280.81;4994155;28;20038;-39
2023/05/09 03:43:28;;;;;;;23.45;17.83;;;;;;;14.03;100.00;101391.16;4977227;28;20150;-42
2023/05/09 03:45:53;;;;;;;22.73;18.38;;;;;;;14.01;100.00;101387.69;4994693;28;20538;-41
2023/05/09 03:48:18;;;;;;;21.90;17.85;;;;;;;13.96;100.00;101387.88;4994472;28;20046;-41
2023/05/09 03:50:43;;;;;;;24.02;17.67;;;;;;;14.00;100.00;101386.84;4994292;28;20478;-41
2023/05/09 03:53:09;;;;;;;22.45;17.80;;;;;;;14.00;100.00;101384.19;4994265;28;20034;-41
2023/05/09 03:55:34;;;;;;;25.48;18.67;;;;;;;13.73;100.00;101337.59;4976301;28;20042;-43
2023/05/09 03:58:00;;;;;;;21.23;18.40;;;;;;;13.99;100.00;101379.81;4994308;28;20034;-45
2023/05/09 04:00:25;;;;;;;27.15;18.33;;;;;;;13.98;100.00;101383.38;4994337;28;20031;-42
2023/05/09 04:02:51;;;;;;;21.25;17.35;;;;;;;13.96;100.00;101374.63;4976622;28;20046;-44
2023/05/09 04:05:17;;;;;;;23.73;19.08;;;;;;;13.94;100.00;101365.03;4993884;28;20074;-42
2023/05/09 04:07:42;;;;;;;27.80;18.65;;;;;;;13.60;100.00;101296.63;4993666;28;20125;-42
2023/05/09 04:10:08;;;;;;;23.98;18.52;;;;;;;13.60;100.00;101295.78;4994000;28;20097;-42
2023/05/09 04:12:33;;;;;;;24.10;18.38;;;;;;;13.66;100.00;101301.69;4994233;28;20385;-43
2023/05/09 04:14:59;;;;;;;24.15;18.55;;;;;;;14.01;100.00;101356.78;4976817;28;20478;-41
2023/05/09 04:17:25;;;;;;;20.58;17.92;;;;;;;13.65;100.00;101293.81;4994034;28;20037;-42
2023/05/09 04:19:50;;;;;;;25.35;18.30;;;;;;;13.70;100.00;101297.16;4993967;28;20041;-43
2023/05/09 04:22:15;;;;;;;22.50;18.05;;;;;;;14.02;100.00;101349.72;4993499;28;20038;-42
2023/05/09 04:24:41;;;;;;;24.80;18.58;;;;;;;13.97;100.00;101330.50;4976155;28;20492;-41
2023/05/09 04:27:06;;;;;;;25.08;17.83;;;;;;;14.01;100.00;101337.38;4993566;28;20545;-42
2023/05/09 04:29:32;;;;;;;26.00;18.88;;;;;;;13.73;100.00;101287.31;4993771;28;20035;-41
2023/05/09 04:31:58;;;;;;;24.38;17.83;;;;;;;13.76;100.00;101292.50;4976021;28;20116;-41
2023/05/09 04:34:25;;;;;;;24.08;18.52;;;;;;;14.05;100.00;101323.13;4993367;28;20112;-41
2023/05/09 04:36:50;;;;;;;25.98;18.00;;;;;;;14.28;100.00;101353.97;4993914;28;20556;-41
2023/05/09 04:39:16;;;;;;;24.23;17.92;;;;;;;14.20;100.00;101335.75;4959647;28;20121;-42
2023/05/09 04:41:43;;;;;;;26.15;20.50;;;;;;;14.25;100.00;101344.38;4993470;28;20053;-43
2023/05/09 04:44:09;;;;;;;26.88;20.30;;;;;;;14.21;100.00;101328.69;4976035;28;20478;-42
2023/05/09 04:46:34;;;;;;;22.00;19.63;;;;;;;13.87;100.00;101270.91;4993468;28;20035;-44
2023/05/09 04:49:00;;;;;;;28.25;21.92;;;;;;;14.23;100.00;101332.13;4993363;28;20035;-49
2023/05/09 04:51:25;;;;;;;26.77;20.85;;;;;;;14.12;100.00;101308.72;4975920;28;20042;-44
2023/05/09 04:53:51;;;;;;;28.77;23.25;;;;;;;14.22;100.00;101333.03;4993133;28;20034;-45
2023/05/09 04:56:16;;;;;;;31.98;23.50;;;;;;;14.18;100.00;101324.38;4993267;28;20090;-42
2023/05/09 04:58:41;;;;;;;26.80;21.45;;;;;;;13.81;100.00;101253.47;4975604;28;20362;-42
2023/05/09 05:01:07;;;;;;;32.15;23.92;;;;;;;14.15;100.00;101324.50;4993080;28;20038;-42
2023/05/09 05:03:32;;;;;;;29.83;23.17;;;;;;;14.17;100.00;101311.19;4993055;28;20044;-41
2023/05/09 05:05:57;;;;;;;27.40;22.00;;;;;;;14.17;100.00;101300.59;4992250;28;20062;-41
2023/05/09 05:08:23;;;;;;;28.83;22.40;;;;;;;14.08;100.00;101289.47;4975374;28;20034;-42
2023/05/09 05:10:48;;;;;;;25.95;20.90;;;;;;;14.16;100.00;101296.22;4992656;28;20468;-42
2023/05/09 05:13:14;;;;;;;26.65;22.02;;;;;;;14.06;100.00;101283.38;4993086;28;20041;-42
2023/05/09 05:15:40;;;;;;;28.50;21.75;;;;;;;14.12;100.00;101300.78;4993064;28;20456;-44
2023/05/09 05:18:05;;;;;;;25.63;20.35;;;;;;;13.80;100.00;101245.63;4975775;28;20038;-41
2023/05/09 05:20:31;;;;;;;28.95;21.23;;;;;;;14.08;100.00;101285.94;4992533;28;20088;-42
2023/05/09 05:22:57;;;;;;;27.25;21.33;;;;;;;14.10;100.00;101292.91;4975422;28;20047;-42
2023/05/09 05:25:22;;;;;;;27.25;21.08;;;;;;;13.84;100.00;101248.06;4992956;28;20038;-44
2023/05/09 05:27:48;;;;;;;24.10;19.50;;;;;;;14.02;100.00;101278.25;4992841;28;20046;-43
2023/05/09 05:30:16;;;;;;;27.48;21.00;;;;;;;14.08;100.00;101285.94;4992951;28;20046;-44
2023/05/09 05:32:42;;;;;;;25.50;20.13;;;;;;;14.09;100.00;101296.50;4992464;28;20031;-44
2023/05/09 05:35:10;;;;;;;23.30;19.10;;;;;;;13.97;100.00;101259.91;4992516;28;20026;-42
2023/05/09 05:37:37;;;;;;;30.23;19.58;;;;;;;14.12;100.00;101286.69;4992630;28;20027;-43
2023/05/09 05:40:03;;;;;;;25.85;20.42;;;;;;;14.11;100.00;101283.19;4992903;28;20489;-42
2023/05/09 05:42:28;;;;;;;23.27;18.67;;;;;;;14.12;100.00;101289.34;4992692;28;20125;-43
2023/05/09 05:44:54;;;;;;;23.77;18.63;;;;;;;14.06;100.00;101280.72;4992180;28;20494;-44
2023/05/09 05:47:19;;;;;;;30.27;19.30;;;;;;;14.06;100.00;101279.84;4992799;28;20037;-43
2023/05/09 05:49:44;;;;;;;26.13;19.95;;;;;;;13.69;100.00;101219.56;4992725;28;20440;-46
2023/05/09 05:52:10;;;;;;;27.77;20.48;;;;;;;13.69;100.00;101210.78;4975183;28;20061;-42
2023/05/09 05:54:35;;;;;;;22.70;18.38;;;;;;;13.38;100.00;101163.50;4992452;28;20481;-43
2023/05/09 05:57:00;;;;;;;26.60;20.25;;;;;;;13.70;100.00;101213.34;4992547;28;20039;-43
2023/05/09 05:59:26;;;;;;;22.52;17.98;;;;;;;14.04;100.00;101273.75;4992556;28;20030;-43
2023/05/09 06:01:51;;;;;;;26.25;19.00;;;;;;;13.74;100.00;101211.47;4992519;28;20046;-43
2023/05/09 06:04:16;;;;;;;22.92;19.67;;;;;;;13.86;100.00;101230.38;4992409;28;20035;-42
2023/05/09 06:06:41;;;;;;;26.98;19.05;;;;;;;13.77;100.00;101230.72;4992230;28;20101;-47
2023/05/09 06:09:07;;;;;;;21.65;18.10;;;;;;;13.99;100.00;101266.00;4974444;28;20100;-44
2023/05/09 06:11:32;;;;;;;28.33;19.33;;;;;;;13.99;100.00;101263.34;4992381;28;20074;-42
2023/05/09 06:13:57;;;;;;;23.60;18.42;;;;;;;13.98;100.00;101266.91;4992499;28;20034;-41
2023/05/09 06:16:23;;;;;;;25.55;18.90;;;;;;;13.99;100.00;101252.75;4992363;28;20121;-48
2023/05/09 06:18:48;;;;;;;22.88;17.85;;;;;;;13.87;100.00;101233.84;4995867;28;20697;-41
2023/05/09 06:21:13;;;;;;;22.00;16.92;;;;;;;13.96;100.00;101244.06;4978565;28;20537;-42
2023/05/09 06:23:39;;;;;;;20.88;17.00;;;;;;;13.91;100.00;101236.34;4995999;28;20034;-41
2023/05/09 06:26:04;;;;;;;22.13;16.92;;;;;;;13.96;100.00;101244.06;4995992;28;20366;-43
2023/05/09 06:28:29;;;;;;;21.95;17.10;;;;;;;13.66;100.00;101200.31;4995825;28;20038;-43
2023/05/09 06:30:55;;;;;;;21.25;15.18;;;;;;;13.95;100.00;101252.97;4978232;28;20026;-42
2023/05/09 06:33:20;;;;;;;18.67;14.65;;;;;;;13.56;100.00;101183.94;4995891;28;20074;-44
2023/05/09 06:35:46;;;;;;;16.13;12.73;;;;;;;13.85;100.00;101228.63;4995386;28;20092;-42
2023/05/09 06:38:11;;;;;;;17.95;12.95;;;;;;;13.44;100.00;101164.13;4976195;28;20035;-42
2023/05/09 06:40:36;;;;;;;17.80;13.88;;;;;;;13.80;100.00;101235.91;4993124;28;20093;-46
2023/05/09 06:43:02;;;;;;;15.82;12.65;;;;;;;13.88;100.00;101225.88;4994013;28;20134;-41
2023/05/09 06:45:27;;;;;;;17.48;13.30;;;;;;;13.88;100.00;101227.66;4975589;28;20046;-46
2023/05/09 06:47:52;;;;;;;18.10;13.52;;;;;;;13.53;100.00;101169.06;4992902;28;20548;-42
2023/05/09 06:50:18;;;;;;;17.48;13.07;;;;;;;13.81;100.00;101215.56;4993754;28;20044;-42
2023/05/09 06:52:43;;;;;;;14.05;12.38;;;;;;;13.93;100.00;101217.72;4993628;28;20034;-42
2023/05/09 06:55:09;;;;;;;17.05;12.77;;;;;;;13.57;100.00;101156.59;4993380;28;20137;-46
2023/05/09 06:57:35;;;;;;;14.70;12.30;;;;;;;13.61;100.00;101155.53;4993871;28;20030;-41
2023/05/09 07:00:00;;;;;;;16.45;12.30;;;;;;;13.59;100.00;101152.09;4994183;28;20039;-42
2023/05/09 07:02:25;;;;;;;19.35;14.02;;;;;;;13.57;100.00;101153.06;4993668;28;20092;-47
2023/05/09 07:04:51;;;;;;;15.30;12.50;;;;;;;13.84;100.00;101208.38;4993911;28;20038;-41
2023/05/09 07:07:16;;;;;;;15.55;12.18;;;;;;;13.84;100.00;101213.66;4992974;28;20057;-42
2023/05/09 07:09:41;;;;;;;14.98;11.55;;;;;;;13.86;100.00;101201.25;4993611;28;20045;-41
2023/05/09 07:12:07;;;;;;;13.50;12.10;;;;;;;13.84;100.00;101197.78;4993604;28;20034;-43
2023/05/09 07:14:32;;;;;;;12.43;10.65;;;;;;;13.80;100.00;101198.84;4993646;28;20097;-42
2023/05/09 07:16:57;;;;;;;12.80;9.45;;;;;;;13.76;100.00;101173.44;4993311;28;20065;-41
2023/05/09 07:19:23;;;;;;;14.15;10.68;;;;;;;13.80;100.00;101184.75;4993589;28;20378;-43
2023/05/09 07:21:48;;;;;;;12.90;7.82;;;;;;;13.45;100.00;101123.56;4975701;28;20046;-42
2023/05/09 07:24:13;;;;;;;9.65;8.50;;;;;;;13.74;100.00;101180.59;4974406;28;20497;-45
2023/05/09 07:26:39;;;;;;;9.02;7.75;;;;;;;13.79;100.00;101165.38;4992423;28;20034;-42
2023/05/09 07:29:04;;;;;;;10.30;8.63;;;;;;;13.49;100.00;101111.91;4975206;28;20030;-42
2023/05/09 07:31:30;;;;;;;9.32;7.85;;;;;;;13.54;100.00;101099.34;4993056;28;20165;-45
2023/05/09 07:33:55;;;;;;;9.25;7.65;;;;;;;13.98;100.00;101168.97;4992775;28;20182;-45
2023/05/09 07:36:20;;;;;;;9.18;7.85;;;;;;;13.90;100.00;101141.97;4975465;28;20504;-42
2023/05/09 07:38:51;;;;;;;8.68;7.78;;;;;;;14.01;100.00;101155.63;4992845;28;20041;-42
2023/05/09 07:41:17;;;;;;;9.40;7.68;;;;;;;13.74;100.00;101073.88;4992936;28;20134;-42
2023/05/09 07:43:43;;;;;;;13.93;9.43;;;;;;;14.24;100.00;101140.56;4993134;28;20113;-42
2023/05/09 07:46:08;;;;;;;11.32;9.07;;;;;;;14.28;100.00;101119.19;4975825;28;20038;-44
2023/05/09 07:48:33;;;;;;;11.20;9.07;;;;;;;14.14;100.00;101088.94;4993548;28;20041;-42
2023/05/09 07:50:59;;;;;;;12.13;9.73;;;;;;;14.02;100.00;101070.00;4992860;28;20077;-44
2023/05/09 07:53:24;;;;;;;13.07;9.77;;;;;;;14.35;100.00;101127.75;4993248;28;20038;-42
2023/05/09 07:55:49;;;;;;;11.85;10.45;;;;;;;14.37;100.00;101128.56;4975546;28;20042;-43
2023/05/09 07:58:15;;;;;;;12.93;11.55;;;;;;;14.24;100.00;101099.09;4993083;28;20588;-43
2023/05/09 08:00:41;;;;;;;14.70;12.52;;;;;;;14.20;100.00;101086.03;4993035;28;20122;-42
2023/05/09 08:03:07;;;;;;;15.15;12.07;;;;;;;14.15;100.00;101058.91;4994450;28;20041;-42
2023/05/09 08:05:32;;;;;;;16.13;13.05;;;;;;;14.51;100.00;101102.31;4975288;28;20117;-47
2023/05/09 08:07:58;;;;;;;17.13;14.18;;;;;;;14.54;100.00;101107.47;4992410;28;20137;-41
2023/05/09 08:10:23;;;;;;;18.48;15.27;;;;;;;14.20;100.00;101039.22;4975245;28;20493;-44
2023/05/09 08:12:49;;;;;;;17.60;15.52;;;;;;;14.25;100.00;101039.88;4992419;28;20035;-42
2023/05/09 08:15:14;;;;;;;19.50;15.35;;;;;;;14.57;100.00;101075.56;4992767;28;20035;-43
2023/05/09 08:17:39;;;;;;;18.20;14.50;;;;;;;14.25;100.00;101021.34;4992310;28;20121;-42
2023/05/09 08:20:06;;;;;;;20.30;15.25;;;;;;;14.32;100.00;101019.28;4992445;28;20035;-47
2023/05/09 08:22:32;;;;;;;17.50;14.80;;;;;;;14.77;100.00;101095.88;4992419;28;20133;-45
2023/05/09 08:24:57;;;;;;;16.48;14.75;;;;;;;14.46;100.00;101025.72;4991796;28;20125;-42
2023/05/09 08:27:22;;;;;;;18.17;14.20;;;;;;;14.86;100.00;101075.09;4992056;28;20084;-43
2023/05/09 08:29:48;;;;;;;14.45;12.90;;;;;;;14.76;100.00;101063.22;4991970;28;20146;-42
2023/05/09 08:32:13;;;;;;;13.82;12.45;;;;;;;14.91;100.00;101074.88;4992132;28;20347;-42
2023/05/09 08:34:38;;;;;;;14.05;12.57;;;;;;;14.93;100.00;101068.59;4991755;28;20540;-44
2023/05/09 08:37:04;;;;;;;15.35;13.75;;;;;;;14.97;100.00;101074.59;4991906;28;20054;-44
2023/05/09 08:39:30;;;;;;;14.30;12.80;;;;;;;14.95;100.00;101068.50;4991961;28;20038;-44
2023/05/09 08:41:59;;;;;;;15.43;13.63;;;;;;;15.00;100.00;101058.56;4974658;28;20069;-41
2023/05/09 08:44:26;;;;;;;13.68;12.27;;;;;;;14.89;100.00;101043.16;4974539;28;20030;-41
2023/05/09 08:46:54;;;;;;;12.93;11.68;;;;;;;15.05;100.00;101068.00;4991896;28;20038;-43
2023/05/09 08:49:19;;;;;;;12.57;11.35;;;;;;;14.99;100.00;101063.00;4974288;28;20037;-44
2023/05/09 08:51:46;;;;;;;13.13;11.40;;;;;;;14.63;100.00;100996.66;4991953;28;20034;-43
2023/05/09 08:54:12;;;;;;;13.85;12.20;;;;;;;14.62;100.00;100989.63;4992039;28;20042;-44
2023/05/09 08:56:37;;;;;;;12.82;11.52;;;;;;;14.83;100.00;100995.72;4974514;28;20141;-42
2023/05/09 08:59:04;;;;;;;14.23;11.68;;;;;;;14.60;100.00;100966.81;4974415;28;20034;-42
2023/05/09 09:01:31;;;;;;;12.82;11.57;;;;;;;15.02;100.00;101041.66;4974250;28;20088;-44
2023/05/09 09:03:57;;;;;;;14.23;12.70;;;;;;;15.01;100.00;101052.31;4991587;28;20036;-42
2023/05/09 09:06:24;;;;;;;14.77;13.27;;;;;;;14.70;100.00;100991.09;4974206;28;20054;-44
2023/05/09 09:08:50;;;;;;;15.38;13.68;;;;;;;15.03;100.00;101046.00;4991821;28;20030;-44
2023/05/09 09:11:16;;;;;;;16.83;14.93;;;;;;;15.07;100.00;101047.59;4991872;28;20422;-45
2023/05/09 09:13:43;;;;;;;16.30;14.70;;;;;;;15.08;100.00;101051.09;4991654;28;20125;-45
2023/05/09 09:16:10;;;;;;;15.95;14.45;;;;;;;15.06;100.00;101052.97;4991508;28;20074;-47
2023/05/09 09:18:35;;;;;;;17.60;15.70;;;;;;;15.06;100.00;101047.66;4974302;28;20035;-48
2023/05/09 09:21:09;;;;;;;17.98;16.10;;;;;;;15.06;100.00;101043.19;4991254;28;20092;-43
2023/05/09 09:23:36;;;;;;;18.08;16.25;;;;;;;15.08;100.00;101036.06;4973912;28;20026;-44
2023/05/09 09:26:05;;;;;;;17.15;15.10;;;;;;;15.05;100.00;101036.19;4973651;28;20046;-47
2023/05/09 09:28:31;;;;;;;17.08;15.27;;;;;;;14.65;100.00;100981.53;4991622;28;20038;-44
2023/05/09 09:30:56;;;;;;;17.60;15.98;;;;;;;14.88;100.00;101020.25;4973988;28;20529;-42
2023/05/09 09:33:23;;;;;;;16.95;15.35;;;;;;;14.87;100.00;101029.13;4991111;28;20117;-42
2023/05/09 09:35:50;;;;;;;18.17;15.60;;;;;;;14.84;100.00;101023.94;4991173;28;20077;-43
2023/05/09 09:38:23;;;;;;;18.52;15.23;;;;;;;14.88;100.00;101032.63;4991000;28;20065;-42
2023/05/09 09:40:52;;;;;;;17.92;16.10;;;;;;;14.68;100.00;101008.84;4991186;28;20036;-45
2023/05/09 09:43:17;;;;;;;17.23;15.50;;;;;;;14.88;100.00;101020.25;4991263;28;20042;-46
2023/05/09 09:45:48;;;;;;;16.55;14.93;;;;;;;14.46;100.00;100962.16;4973818;28;20137;-43
2023/05/09 09:48:13;;;;;;;17.65;15.85;;;;;;;14.75;100.00;101018.22;4991257;28;20034;-45
2023/05/09 09:50:38;;;;;;;20.13;18.05;;;;;;;14.74;100.00;101022.66;4991297;28;20042;-43
2023/05/09 09:53:04;;;;;;;20.77;16.75;;;;;;;14.74;100.00;101025.31;4976053;28;20042;-43
2023/05/09 09:55:30;;;;;;;17.85;16.13;;;;;;;14.72;100.00;101010.41;4995023;28;20146;-46
2023/05/09 09:57:55;;;;;;;17.42;15.73;;;;;;;14.48;100.00;100962.94;4961236;28;20034;-43
2023/05/09 10:00:26;;;;;;;17.88;16.30;;;;;;;14.80;100.00;101002.97;4994947;28;20452;-45
2023/05/09 10:02:56;;;;;;;18.33;16.45;;;;;;;14.88;100.00;101017.59;4977307;28;20034;-43
2023/05/09 10:05:26;;;;;;;19.00;17.08;;;;;;;14.56;100.00;100944.88;4995023;28;20050;-43
2023/05/09 10:08:01;;;;;;;18.37;16.67;;;;;;;14.99;100.00;101019.72;4994543;28;20066;-43
2023/05/09 10:10:32;;;;;;;20.27;18.42;;;;;;;14.98;100.00;101005.59;4994441;28;20074;-46
2023/05/09 10:13:01;;;;;;;20.42;18.42;;;;;;;15.03;100.00;101010.69;4994545;28;20104;-44
2023/05/09 10:15:28;;;;;;;18.60;16.90;;;;;;;14.94;100.00;101009.34;4994784;28;20088;-47
2023/05/09 10:17:56;;;;;;;19.58;17.65;;;;;;;14.94;100.00;101013.78;4977267;28;20066;-43
2023/05/09 10:20:22;;;;;;;17.90;16.27;;;;;;;14.79;100.00;100993.31;4994374;28;20042;-44
2023/05/09 10:22:48;;;;;;;18.30;16.58;;;;;;;14.78;100.00;100983.63;4993853;28;20393;-45
2023/05/09 10:25:19;;;;;;;19.40;17.52;;;;;;;14.63;100.00;100942.81;4976818;28;20034;-47
2023/05/09 10:27:45;;;;;;;;;;;;;;;14.99;100.00;100996.72;4994717;28;20042;-45
2023/05/09 10:30:32;;;;;;;18.98;17.13;;;;;;;15.05;100.00;101008.81;4975280;28;20258;-47
2023/05/09 10:33:07;;;;;;;18.25;16.65;;;;;;;15.07;100.00;100989.25;4994200;28;20042;-44
2023/05/09 10:35:36;;;;;;;19.13;17.23;;;;;;;15.12;100.00;100987.22;4993764;28;20037;-46
2023/05/09 10:38:01;;;;;;;19.65;17.73;;;;;;;15.07;100.00;100970.69;4994515;28;20049;-46
2023/05/09 10:40:27;;;;;;;17.70;16.08;;;;;;;15.28;100.00;100978.53;4994486;28;20027;-47
2023/05/09 10:42:53;;;;;;;17.23;15.52;;;;;;;15.03;100.00;100949.72;4976819;28;20101;-46
2023/05/09 10:45:20;;;;;;;17.63;16.02;;;;;;;14.84;100.00;100911.78;4993760;28;20034;-46
2023/05/09 10:47:49;;;;;;;16.15;14.73;;;;;;;14.90;100.00;100938.84;4994076;28;20045;-45
2023/05/09 10:50:15;;;;;;;17.25;15.65;;;;;;;14.82;100.00;100911.00;4976764;28;20030;-46
2023/05/09 10:53:02;;;;;;;16.40;14.90;;;;;;;15.06;100.00;100966.31;4976549;28;20034;-45
2023/05/09 10:56:00;;;;;;;14.48;13.13;;;;;;;15.11;100.00;100961.69;4994124;28;20073;-43
2023/05/09 10:58:27;;;;;;;14.60;13.10;;;;;;;14.81;100.00;100896.03;4934379;28;20559;-43
2023/05/09 11:00:55;;;;;;;14.13;12.73;;;;;;;14.87;100.00;100901.03;4976523;28;20120;-45